createdAt,value
2019-04-28T00:01:01.687Z,100790.98
2019-04-28T00:05:06.596Z,100798.43
2019-04-28T00:09:11.795Z,100799.25
2019-04-28T00:13:15.283Z,100804.84
2019-04-28T00:17:18.788Z,100799.75
2019-04-28T00:21:26.497Z,100800.89
2019-04-28T00:25:31.642Z,100803.92
2019-04-28T00:29:40.874Z,100808.59
2019-04-28T00:33:41.007Z,100807.31
2019-04-28T00:37:45.603Z,100810.70
2019-04-28T00:41:49.393Z,100808.62
2019-04-28T00:45:52.875Z,100819.22
2019-04-28T00:49:56.359Z,100814.87
2019-04-28T00:54:00.847Z,100825.77
2019-04-28T00:58:04.432Z,100828.23
2019-04-28T01:02:11.109Z,100821.20
2019-04-28T01:06:14.706Z,100825.87
2019-04-28T01:10:20.952Z,100833.78
2019-04-28T01:14:24.185Z,100830.50
2019-04-28T01:18:30.250Z,100830.28
2019-04-28T01:22:35.147Z,100828.95
2019-04-28T01:26:39.217Z,100831.72
2019-04-28T01:30:45.487Z,100833.67
2019-04-28T01:34:49.868Z,100840.77
2019-04-28T01:38:53.808Z,100842.92
2019-04-28T01:42:57.735Z,100840.56
2019-04-28T01:47:01.296Z,100842.88
2019-04-28T01:51:04.862Z,100847.95
2019-04-28T01:55:10.099Z,100851.70
2019-04-28T01:59:13.783Z,100855.91
2019-04-28T02:03:17.322Z,100852.98
2019-04-28T02:07:20.819Z,100850.22
2019-04-28T02:11:24.672Z,100856.12
2019-04-28T02:15:30.055Z,100851.36
2019-04-28T02:19:33.392Z,100852.38
2019-04-28T02:23:39.587Z,100850.98
2019-04-28T02:27:43.125Z,100855.03
2019-04-28T02:31:46.593Z,100860.52
2019-04-28T02:35:51.081Z,100867.09
2019-04-28T02:39:54.778Z,100868.27
2019-04-28T02:44:00.845Z,100868.63
2019-04-28T02:48:06.270Z,100871.30
2019-04-28T02:52:20.211Z,100870.94
2019-04-28T02:56:23.374Z,100878.83
2019-04-28T03:00:26.848Z,100880.94
2019-04-28T03:04:30.962Z,100877.31
2019-04-28T03:08:34.582Z,100880.27
2019-04-28T03:12:41.090Z,100883.92
2019-04-28T03:16:43.900Z,100886.69
2019-04-28T03:20:47.388Z,100892.11
2019-04-28T03:24:52.529Z,100887.05
2019-04-28T03:29:13.565Z,100889.13
2019-04-28T03:33:24.462Z,100889.81
2019-04-28T03:37:24.543Z,100899.15
2019-04-28T03:41:30.889Z,100900.27
2019-04-28T03:45:43.988Z,100909.87
2019-04-28T03:49:50.277Z,100909.24
2019-04-28T03:53:52.711Z,100907.17
2019-04-28T03:57:56.192Z,100913.19
2019-04-28T04:02:03.193Z,100909.80
2019-04-28T04:06:05.454Z,100915.30
2019-04-28T04:10:11.515Z,100914.57
2019-04-28T04:14:21.100Z,100915.39
2019-04-28T04:18:30.841Z,100926.67
2019-04-28T04:22:33.830Z,100922.06
2019-04-28T04:26:37.757Z,100928.51
2019-04-28T04:30:41.952Z,100928.58
2019-04-28T04:34:45.410Z,100945.08
2019-04-28T04:38:51.362Z,100947.05
2019-04-28T04:42:54.072Z,100952.61
2019-04-28T04:46:57.563Z,100947.09
2019-04-28T04:51:01.488Z,100956.78
2019-04-28T04:55:06.440Z,100956.69
2019-04-28T04:59:10.477Z,100964.23
2019-04-28T05:03:21.181Z,100966.44
2019-04-28T05:07:24.034Z,100965.72
2019-04-28T05:11:27.579Z,100966.53
2019-04-28T05:15:31.069Z,100972.03
2019-04-28T05:19:34.877Z,100969.13
2019-04-28T05:23:46.502Z,100980.45
2019-04-28T05:27:54.476Z,100981.66
2019-04-28T05:32:03.162Z,100997.41
2019-04-28T05:36:05.623Z,101002.36
2019-04-28T05:40:10.441Z,101021.42
2019-04-28T05:44:14.521Z,101027.11
2019-04-28T05:48:20.049Z,101027.11
2019-04-28T05:52:41.184Z,101032.41
2019-04-28T05:57:02.346Z,101044.31
2019-04-28T06:01:10.380Z,101056.77
2019-04-28T06:05:13.902Z,101062.70
2019-04-28T06:09:20.360Z,101070.02
2019-04-28T06:13:24.323Z,101075.23
2019-04-28T06:17:29.491Z,101074.60
2019-04-28T06:21:33.141Z,101080.91
2019-04-28T06:25:36.637Z,101084.84
2019-04-28T06:29:40.132Z,101093.45
2019-04-28T06:33:44.587Z,101101.52
2019-04-28T06:37:48.228Z,101103.62
2019-04-28T06:41:51.709Z,101104.91
2019-04-28T06:45:55.476Z,101117.63
2019-04-28T06:49:58.969Z,101113.86
2019-04-28T06:54:03.333Z,101112.77
2019-04-28T06:58:06.817Z,101105.97
2019-04-28T07:02:10.343Z,101112.41
2019-04-28T07:06:13.849Z,101110.84
2019-04-28T07:10:17.347Z,101108.16
2019-04-28T07:14:20.816Z,101116.39
2019-04-28T07:18:24.298Z,101121.18
2019-04-28T07:22:29.766Z,101122.48
2019-04-28T07:26:33.422Z,101129.64
2019-04-28T07:30:38.983Z,101134.87
2019-04-28T07:34:42.449Z,101138.51
2019-04-28T07:38:46.229Z,101143.33
2019-04-28T07:42:49.711Z,101145.23
2019-04-28T07:46:53.198Z,101138.45
2019-04-28T07:50:56.686Z,101138.45
2019-04-28T07:55:00.611Z,101149.76
2019-04-28T07:59:04.087Z,101159.34
2019-04-28T08:03:07.551Z,101154.83
2019-04-28T08:07:11.135Z,101156.18
2019-04-28T08:11:14.617Z,101164.23
2019-04-28T08:15:18.481Z,101165.69
2019-04-28T08:19:22.272Z,101169.05
2019-04-28T08:23:26.113Z,101183.12
2019-04-28T08:27:29.890Z,101185.63
2019-04-28T08:31:53.097Z,101189.05
2019-04-28T08:35:56.664Z,101190.80
2019-04-28T08:40:00.470Z,101193.82
2019-04-28T08:44:03.985Z,101208.12
2019-04-28T08:48:07.664Z,101207.52
2019-04-28T08:52:11.424Z,101208.73
2019-04-28T08:56:14.915Z,101211.17
2019-04-28T09:00:19.256Z,101213.36
2019-04-28T09:04:22.732Z,101209.66
2019-04-28T09:08:26.207Z,101222.15
2019-04-28T09:12:30.165Z,101227.81
2019-04-28T09:16:33.660Z,101229.22
2019-04-28T09:20:37.141Z,101232.63
2019-04-28T09:24:40.632Z,101241.94
2019-04-28T09:28:44.199Z,101248.34
2019-04-28T09:32:47.689Z,101248.55
2019-04-28T09:36:51.212Z,101256.34
2019-04-28T09:40:54.692Z,101246.47
2019-04-28T09:45:01.644Z,101254.97
2019-04-28T09:49:05.658Z,101254.64
2019-04-28T09:53:11.292Z,101260.84
2019-04-28T09:57:14.801Z,101259.29
2019-04-28T10:01:18.294Z,101257.47
2019-04-28T10:05:22.260Z,101260.58
2019-04-28T10:09:26.085Z,101264.17
2019-04-28T10:13:29.585Z,101260.68
2019-04-28T10:17:33.073Z,101260.20
2019-04-28T10:21:36.545Z,101254.77
2019-04-28T10:25:40.434Z,101261.80
2019-04-28T10:29:43.933Z,101272.94
2019-04-28T10:33:49.496Z,101266.05
2019-04-28T10:37:53.217Z,101254.95
2019-04-28T10:41:56.716Z,101252.00
2019-04-28T10:46:00.608Z,101259.44
2019-04-28T10:50:04.952Z,101261.76
2019-04-28T10:54:08.724Z,101269.47
2019-04-28T10:58:12.396Z,101257.97
2019-04-28T11:02:16.237Z,101254.44
2019-04-28T11:06:20.238Z,101268.34
2019-04-28T11:10:24.087Z,101270.38
2019-04-28T11:14:28.119Z,101271.13
2019-04-28T11:18:31.611Z,101273.03
2019-04-28T11:22:35.280Z,101268.30
2019-04-28T11:26:38.860Z,101270.38
2019-04-28T11:30:42.485Z,101276.77
2019-04-28T11:35:04.550Z,101278.13
2019-04-28T11:39:10.058Z,101285.23
2019-04-28T11:43:13.561Z,101283.70
2019-04-28T11:47:18.854Z,101286.87
2019-04-28T11:51:22.347Z,101293.80
2019-04-28T11:55:25.905Z,101290.63
2019-04-28T11:59:29.814Z,101288.30
2019-04-28T12:03:33.589Z,101294.76
2019-04-28T12:07:37.142Z,101290.95
2019-04-28T12:11:42.564Z,101288.52
2019-04-28T12:15:50.382Z,101298.33
2019-04-28T12:19:55.843Z,101292.56
2019-04-28T12:23:59.697Z,101294.52
2019-04-28T12:28:04.326Z,101304.16
2019-04-28T12:32:07.837Z,101305.84
2019-04-28T12:36:12.176Z,101309.94
2019-04-28T12:40:16.192Z,101315.59
2019-04-28T12:44:20.098Z,101315.76
2019-04-28T12:48:23.897Z,101325.31
2019-04-28T12:52:27.497Z,101325.99
2019-04-28T12:56:31.336Z,101316.52
2019-04-28T13:00:42.527Z,101321.34
2019-04-28T13:04:47.961Z,101318.93
2019-04-28T13:08:51.445Z,101322.51
2019-04-28T13:12:55.036Z,101326.13
2019-04-28T13:16:58.535Z,101325.63
2019-04-28T13:21:02.031Z,101322.84
2019-04-28T13:25:06.886Z,101327.58
2019-04-28T13:29:10.687Z,101328.94
2019-04-28T13:33:14.178Z,101324.05
2019-04-28T13:37:17.787Z,101334.03
2019-04-28T13:41:21.279Z,101332.13
2019-04-28T13:45:28.442Z,101335.55
2019-04-28T13:49:33.854Z,101334.38
2019-04-28T13:53:42.411Z,101332.04
2019-04-28T13:57:58.583Z,101339.23
2019-04-28T14:02:09.849Z,101335.45
2019-04-28T14:06:27.200Z,101334.41
2019-04-28T14:10:20.204Z,101333.63
2019-04-28T14:14:23.804Z,101330.90
2019-04-28T14:18:27.291Z,101328.48
2019-04-28T14:22:30.901Z,101330.79
2019-04-28T14:26:34.492Z,101333.41
2019-04-28T14:30:38.028Z,101342.48
2019-04-28T14:34:41.720Z,101346.50
2019-04-28T14:38:45.554Z,101354.68
2019-04-28T14:42:49.929Z,101352.72
2019-04-28T14:46:53.780Z,101349.66
2019-04-28T14:50:57.271Z,101345.35
2019-04-28T14:55:01.107Z,101346.30
2019-04-28T14:59:05.080Z,101358.41
2019-04-28T15:03:10.309Z,101350.09
2019-04-28T15:07:31.801Z,101353.21
2019-04-28T15:11:42.982Z,101347.90
2019-04-28T15:15:45.810Z,101352.64
2019-04-28T15:19:49.089Z,101350.12
2019-04-28T15:23:53.074Z,101353.13
2019-04-28T15:27:56.942Z,101354.14
2019-04-28T15:32:00.422Z,101360.39
2019-04-28T15:36:04.141Z,101364.25
2019-04-28T15:40:08.111Z,101366.14
2019-04-28T15:44:11.645Z,101368.19
2019-04-28T15:48:15.108Z,101374.52
2019-04-28T15:52:19.036Z,101373.28
2019-04-28T15:56:26.874Z,101371.20
2019-04-28T16:00:30.660Z,101368.61
2019-04-28T16:04:34.259Z,101365.92
2019-04-28T16:08:37.765Z,101375.14
2019-04-28T16:12:41.617Z,101375.00
2019-04-28T16:16:45.312Z,101372.02
2019-04-28T16:20:49.080Z,101380.09
2019-04-28T16:24:52.635Z,101378.14
2019-04-28T16:28:56.637Z,101379.11
2019-04-28T16:33:00.121Z,101379.37
2019-04-28T16:37:03.611Z,101382.91
2019-04-28T16:41:07.094Z,101384.72
2019-04-28T16:45:10.837Z,101393.77
2019-04-28T16:49:14.328Z,101395.87
2019-04-28T16:53:17.833Z,101400.56
2019-04-28T16:57:28.657Z,101391.97
2019-04-28T17:01:49.875Z,101399.41
2019-04-28T17:05:53.414Z,101396.58
2019-04-28T17:09:56.918Z,101395.91
2019-04-28T17:14:00.419Z,101409.30
2019-04-28T17:18:03.980Z,101409.29
2019-04-28T17:22:07.597Z,101408.82
2019-04-28T17:26:11.670Z,101416.04
2019-04-28T17:30:15.502Z,101417.19
2019-04-28T17:34:19.289Z,101422.45
2019-04-28T17:38:22.778Z,101419.98
2019-04-28T17:42:26.372Z,101428.22
2019-04-28T17:46:30.233Z,101423.39
2019-04-28T17:50:35.379Z,101424.73
2019-04-28T17:54:39.199Z,101428.16
2019-04-28T17:58:43.101Z,101433.39
2019-04-28T18:03:00.377Z,101447.34
2019-04-28T18:07:11.152Z,101445.13
2019-04-28T18:11:15.045Z,101455.44
2019-04-28T18:15:32.594Z,101454.25
2019-04-28T18:19:36.825Z,101462.20
2019-04-28T18:23:41.247Z,101466.70
2019-04-28T18:27:44.800Z,101471.02
2019-04-28T18:31:58.997Z,101489.66
2019-04-28T18:36:04.119Z,101488.74
2019-04-28T18:40:09.681Z,101494.91
2019-04-28T18:44:14.838Z,101499.84
2019-04-28T18:48:18.348Z,101505.48
2019-04-28T18:52:21.794Z,101516.53
2019-04-28T18:56:25.325Z,101523.98
2019-04-28T19:00:30.464Z,101521.03
2019-04-28T19:04:34.331Z,101531.95
2019-04-28T19:08:48.855Z,101534.31
2019-04-28T19:12:46.702Z,101538.16
2019-04-28T19:17:07.213Z,101544.31
2019-04-28T19:21:10.711Z,101549.91
2019-04-28T19:25:14.598Z,101546.66
2019-04-28T19:29:18.183Z,101548.22
2019-04-28T19:33:21.725Z,101555.89
2019-04-28T19:37:26.752Z,101560.34
2019-04-28T19:41:30.576Z,101564.45
2019-04-28T19:45:35.702Z,101561.67
2019-04-28T19:49:39.210Z,101563.66
2019-04-28T19:53:42.718Z,101572.73
2019-04-28T19:57:53.687Z,101575.35
2019-04-28T20:01:57.192Z,101579.45
2019-04-28T20:06:00.667Z,101579.63
2019-04-28T20:10:08.486Z,101581.45
2019-04-28T20:14:12.064Z,101580.75
2019-04-28T20:18:16.107Z,101584.64
2019-04-28T20:22:20.510Z,101582.66
2019-04-28T20:26:24.151Z,101587.36
2019-04-28T20:30:28.061Z,101585.45
2019-04-28T20:34:34.203Z,101595.33
2019-04-28T20:38:37.678Z,101594.55
2019-04-28T20:48:04.771Z,101595.22
2019-04-28T20:52:08.247Z,101606.30
2019-04-28T20:56:11.706Z,101608.97
2019-04-28T21:00:15.423Z,101617.09
2019-04-28T21:04:19.246Z,101623.44
2019-04-28T21:08:22.688Z,101634.36
2019-04-28T21:12:26.180Z,101635.27
2019-04-28T21:16:29.665Z,101641.16
2019-04-28T21:20:33.235Z,101645.02
2019-04-28T21:24:36.706Z,101642.98
2019-04-28T21:28:40.163Z,101649.83
2019-04-28T21:32:43.672Z,101652.08
2019-04-28T21:36:47.146Z,101648.30
2019-04-28T21:40:50.638Z,101644.62
2019-04-28T21:45:14.280Z,101654.70
2019-04-28T21:49:19.753Z,101656.47
2019-04-28T21:53:23.230Z,101657.87
2019-04-28T21:57:27.080Z,101652.00
2019-04-28T22:01:30.922Z,101652.00
2019-04-28T22:05:34.728Z,101662.02
2019-04-28T22:09:38.533Z,101660.82
2019-04-28T22:13:42.028Z,101659.31
2019-04-28T22:17:45.500Z,101663.53
2019-04-28T22:21:48.978Z,101657.88
2019-04-28T22:25:52.450Z,101654.56
2019-04-28T22:29:55.918Z,101656.00
2019-04-28T22:33:59.894Z,101660.82
2019-04-28T22:38:03.337Z,101664.59
2019-04-28T22:42:06.854Z,101662.48
2019-04-28T22:46:10.658Z,101670.02
2019-04-28T22:50:40.289Z,101665.87
2019-04-28T22:54:51.156Z,101665.87
2019-04-28T22:58:58.937Z,101664.66
2019-04-28T23:03:02.490Z,101670.53
2019-04-28T23:07:06.410Z,101666.47
2019-04-28T23:11:10.231Z,101679.80
2019-04-28T23:15:14.115Z,101679.80
2019-04-28T23:19:19.357Z,101670.83
2019-04-28T23:23:23.227Z,101669.70
2019-04-28T23:27:26.736Z,101667.22
2019-04-28T23:31:30.214Z,101670.61
2019-04-28T23:35:33.692Z,101661.42
2019-04-28T23:39:37.346Z,101665.56
2019-04-28T23:43:40.828Z,101665.56
2019-04-28T23:47:44.695Z,101661.95
2019-04-28T23:51:56.366Z,101659.01
2019-04-28T23:55:59.831Z,101667.83
